Time;durP1;ratioP1;P1;durP2;ratioP2;P2;SDS_P1;SDS_P2;PMS_P1;PMS_P2;Temp;Humidity;BMP_temperature;BMP_pressure;BME280_temperature;BME280_humidity;BME280_pressure;Samples;Min_cycle;Max_cycle;Signal;HPM_P1;HPM_P2
2022/05/30 00:06:09;;;;;;;;;;;23.30;35.00;;;;;;21166278;28;19977;-61
2022/05/30 00:16:12;;;;;;;;;;;23.10;35.30;;;;;;21166193;28;19924;-61
2022/05/30 00:26:13;;;;;;;;;;;23.00;36.10;;;;;;21166283;28;20363;-60
2022/05/30 00:36:14;;;;;;;;;;;22.80;36.80;;;;;;21147290;28;19931;-62
2022/05/30 00:46:18;;;;;;;;;;;22.70;37.40;;;;;;21163639;28;19924;-62
2022/05/30 00:56:20;;;;;;;;;;;22.50;37.70;;;;;;21163553;28;19931;-62
2022/05/30 01:06:31;;;;;;;;;;;;;;;;;;21163672;28;19932;-62
2022/05/30 01:16:34;;;;;;;;;;;;;;;;;;21170586;28;19924;-61
2022/05/30 01:26:36;;;;;;;;;;;;;;;;;;21180339;28;19931;-61
2022/05/30 01:36:41;;;;;;;;;;;;;;;;;;21180068;28;20401;-64
2022/05/30 01:46:45;;;;;;;;;;;;;;;;;;21177886;28;20371;-62
2022/05/30 01:56:48;;;;;;;;;;;;;;;;;;21177531;28;20452;-62
2022/05/30 02:06:51;;;;;;;;;;;;;;;;;;21158034;28;19924;-62
2022/05/30 02:17:00;;;;;;;;;;;;;;;;;;21174598;28;19923;-61
2022/05/30 02:27:05;;;;;;;;;;;;;;;;;;21175520;28;19931;-62
2022/05/30 02:37:09;;;;;;;;;;;22.20;42.30;;;;;;21173566;28;19924;-61
2022/05/30 02:47:11;;;;;;;;;;;22.00;42.40;;;;;;21173977;28;19938;-61
2022/05/30 02:57:13;;;;;;;;;;;21.40;44.30;;;;;;21153784;28;19975;-60
2022/05/30 03:07:15;;;;;;;;;;;21.30;43.70;;;;;;21153001;28;20011;-62
2022/05/30 03:17:16;;;;;;;;;;;21.20;44.90;;;;;;21171409;28;20015;-61
2022/05/30 03:27:18;;;;;;;;;;;21.10;45.90;;;;;;21151761;28;19924;-60
2022/05/30 03:37:21;;;;;;;;;;;21.10;47.00;;;;;;21167929;28;19924;-62
2022/05/30 03:47:23;;;;;;;;;;;20.80;47.40;;;;;;21168323;28;19931;-63
2022/05/30 03:57:24;;;;;;;;;;;20.70;48.80;;;;;;21166842;28;20375;-61
2022/05/30 04:07:26;;;;;;;;;;;20.50;48.90;;;;;;21167728;28;19924;-60
2022/05/30 04:17:29;;;;;;;;;;;;;;;;;;21148870;28;20000;-61
2022/05/30 04:27:32;;;;;;;;;;;;;;;;;;21168045;28;19927;-61
2022/05/30 04:37:36;;;;;;;;;;;;;;;;;;21166546;28;19924;-64
2022/05/30 04:47:39;;;;;;;;;;;;;;;;;;21163118;28;20307;-63
2022/05/30 04:57:41;;;;;;;;;;;;;;;;;;21162900;28;20046;-61
2022/05/30 05:07:43;;;;;;;;;;;;;;;;;;21162605;28;19931;-60
2022/05/30 05:17:45;;;;;;;;;;;19.00;53.90;;;;;;21143553;28;19924;-59
2022/05/30 05:27:50;;;;;;;;;;;18.70;55.30;;;;;;21162087;28;19935;-63
2022/05/30 05:37:52;;;;;;;;;;;18.60;55.30;;;;;;21161360;28;19924;-62
2022/05/30 05:47:54;;;;;;;;;;;18.60;55.60;;;;;;21162996;28;20286;-61
2022/05/30 05:57:56;;;;;;;;;;;18.50;56.90;;;;;;21160415;28;19924;-62
2022/05/30 06:08:03;;;;;;;;;;;18.40;57.20;;;;;;21176079;28;20379;-62
2022/05/30 06:18:04;;;;;;;;;;;18.60;56.70;;;;;;21175110;28;20414;-62
2022/05/30 06:28:07;;;;;;;;;;;18.80;56.60;;;;;;21156347;28;19971;-61
2022/05/30 06:38:09;;;;;;;;;;;19.10;55.70;;;;;;21173379;28;19924;-62
2022/05/30 06:48:11;;;;;;;;;;;19.20;56.00;;;;;;21173463;28;19983;-62
2022/05/30 06:58:12;;;;;;;;;;;19.80;54.90;;;;;;21153072;28;19977;-61
2022/05/30 07:08:14;;;;;;;;;;;20.70;52.50;;;;;;21171089;28;19924;-60
2022/05/30 07:18:17;;;;;;;;;;;21.20;51.30;;;;;;21168738;28;19924;-61
2022/05/30 07:28:20;;;;;;;;;;;21.60;50.30;;;;;;21170739;28;19977;-61
2022/05/30 07:38:22;;;;;;;;;;;;;;;;;;21169409;28;19931;-62
2022/05/30 07:48:24;;;;;;;;;;;22.10;49.00;;;;;;21168396;28;19930;-62
2022/05/30 07:58:26;;;;;;;;;;;22.60;47.80;;;;;;21168019;28;20368;-60
2022/05/30 08:08:28;;;;;;;;;;;23.20;46.50;;;;;;21167008;28;20391;-61
2022/05/30 08:18:30;;;;;;;;;;;23.40;45.60;;;;;;21166516;28;19985;-61
2022/05/30 08:28:33;;;;;;;;;;;23.70;44.40;;;;;;21165070;28;19931;-61
2022/05/30 08:38:37;;;;;;;;;;;23.90;44.00;;;;;;21164450;28;20018;-63
2022/05/30 08:48:47;;;;;;;;;;;24.10;43.00;;;;;;21145837;28;20283;-62
2022/05/30 08:58:53;;;;;;;;;;;24.20;42.30;;;;;;21164524;28;19924;-62
2022/05/30 09:08:58;;;;;;;;;;;24.00;42.90;;;;;;21163351;28;20049;-61
2022/05/30 09:19:01;;;;;;;;;;;24.10;42.70;;;;;;21163170;28;20006;-62
2022/05/30 09:29:04;;;;;;;;;;;23.70;42.30;;;;;;21163321;28;19924;-62
2022/05/30 09:39:14;;;;;;;;;;;23.50;42.90;;;;;;21171013;28;20367;-67
2022/05/30 09:49:17;;;;;;;;;;;24.20;41.50;;;;;;21177573;28;20011;-60
2022/05/30 09:59:19;;;;;;;;;;;24.30;41.20;;;;;;21176751;28;19924;-66
2022/05/30 10:09:23;;;;;;;;;;;24.70;40.40;;;;;;21175083;28;20299;-62
2022/05/30 10:19:29;;;;;;;;;;;24.80;40.00;;;;;;21162803;28;20011;-64
2022/05/30 10:29:31;;;;;;;;;;;24.60;40.10;;;;;;21088924;28;19924;-64
2022/05/30 10:39:54;;;;;;;;;;;24.40;40.30;;;;;;21089096;28;19931;-61
2022/05/30 10:50:02;;;;;;;;;;;24.50;38.80;;;;;;21082431;28;19971;-58
2022/05/30 11:00:10;;;;;;;;;;;24.30;38.90;;;;;;21097876;28;19924;-63
2022/05/30 11:10:30;;;;;;;;;;;24.60;37.70;;;;;;21101033;28;19924;-59
2022/05/30 11:20:33;;;;;;;;;;;24.50;38.20;;;;;;21144121;28;20006;-63
2022/05/30 11:30:55;;;;;;;;;;;24.50;37.80;;;;;;21163157;28;19932;-58
2022/05/30 11:41:08;;;;;;;;;;;24.80;37.40;;;;;;21162626;28;19970;-58
2022/05/30 11:51:20;;;;;;;;;;;24.70;37.30;;;;;;21167501;28;19962;-60
2022/05/30 12:01:23;;;;;;;;;;;24.50;37.30;;;;;;21167026;28;19931;-65
2022/05/30 12:11:33;;;;;;;;;;;24.70;37.50;;;;;;21146722;28;19977;-64
2022/05/30 12:32:10;;;;;;;;;;;25.10;36.70;;;;;;21164964;28;20026;-64
2022/05/30 12:42:26;;;;;;;;;;;24.70;37.10;;;;;;21165206;28;19924;-67
2022/05/30 12:52:37;;;;;;;;;;;24.90;36.70;;;;;;21163195;28;19935;-65
2022/05/30 13:02:57;;;;;;;;;;;25.00;36.60;;;;;;21163937;28;19924;-65
2022/05/30 13:13:06;;;;;;;;;;;25.30;35.90;;;;;;21172660;28;20253;-65
2022/05/30 13:23:09;;;;;;;;;;;25.30;36.00;;;;;;21182061;28;19939;-65
2022/05/30 13:33:21;;;;;;;;;;;25.40;35.90;;;;;;21181069;28;19924;-65
2022/05/30 13:43:31;;;;;;;;;;;25.40;34.90;;;;;;21179877;28;19935;-68
2022/05/30 13:53:37;;;;;;;;;;;25.40;35.00;;;;;;21158587;28;20010;-65
2022/05/30 14:03:46;;;;;;;;;;;25.10;36.00;;;;;;21176632;28;19924;-66
2022/05/30 14:13:52;;;;;;;;;;;24.90;36.40;;;;;;21176855;27;20298;-64
2022/05/30 14:23:58;;;;;;;;;;;24.80;36.60;;;;;;21177340;27;19974;-67
2022/05/30 14:34:10;;;;;;;;;;;25.10;36.50;;;;;;21174700;28;20265;-64
2022/05/30 14:44:17;;;;;;;;;;;25.00;37.00;;;;;;21171528;28;19975;-59
2022/05/30 14:54:28;;;;;;;;;;;24.90;37.60;;;;;;21171302;28;19923;-62
2022/05/30 15:04:31;;;;;;;;;;;25.20;38.10;;;;;;21172259;28;19924;-64
2022/05/30 15:14:33;;;;;;;;;;;25.20;37.80;;;;;;21170753;28;20031;-67
2022/05/30 15:24:38;;;;;;;;;;;25.30;37.40;;;;;;21170528;28;19924;-63
2022/05/30 15:34:39;;;;;;;;;;;25.30;36.20;;;;;;21168481;28;19930;-67
2022/05/30 15:44:43;;;;;;;;;;;25.20;37.30;;;;;;21168027;28;20041;-62
2022/05/30 16:05:13;;;;;;;;;;;25.00;36.50;;;;;;21166169;28;19924;-67
2022/05/30 16:15:15;;;;;;;;;;;;;;;;;;21165291;28;19924;-65
2022/05/30 16:25:17;;;;;;;;;;;26.20;34.70;;;;;;21169264;28;19958;-64
2022/05/30 16:35:21;;;;;;;;;;;25.50;36.20;;;;;;21163432;28;20286;-61
2022/05/30 16:45:22;;;;;;;;;;;25.60;38.60;;;;;;21162542;28;19989;-59
2022/05/30 16:55:24;;;;;;;;;;;25.50;35.50;;;;;;21162952;28;19923;-65
2022/05/30 17:05:27;;;;;;;;;;;25.70;35.00;;;;;;21143558;28;20354;-63
2022/05/30 17:15:29;;;;;;;;;;;25.60;35.50;;;;;;21163116;28;19972;-64
2022/05/30 17:25:31;;;;;;;;;;;25.30;36.00;;;;;;21164356;28;19923;-63
2022/05/30 17:35:33;;;;;;;;;;;25.20;35.10;;;;;;21161439;28;19924;-62
2022/05/30 17:45:44;;;;;;;;;;;25.10;35.70;;;;;;21161872;28;19924;-60
2022/05/30 17:55:48;;;;;;;;;;;24.80;35.90;;;;;;21163861;28;19927;-63
2022/05/30 18:05:51;;;;;;;;;;;24.70;36.20;;;;;;21176999;28;20378;-62
2022/05/30 18:15:58;;;;;;;;;;;24.60;36.20;;;;;;21176165;28;19923;-62
2022/05/30 18:26:00;;;;;;;;;;;24.40;36.60;;;;;;21176035;28;19931;-62
2022/05/30 18:36:20;;;;;;;;;;;24.20;37.40;;;;;;21175023;28;19928;-64
2022/05/30 18:46:25;;;;;;;;;;;24.10;37.30;;;;;;21173832;28;19923;-63
2022/05/30 18:56:29;;;;;;;;;;;;;;;;;;21174503;28;20387;-62
2022/05/30 19:06:30;;;;;;;;;;;24.20;36.80;;;;;;21170386;28;19930;-64
2022/05/30 19:26:54;;;;;;;;;;;23.20;38.70;;;;;;21173870;28;19976;-63
2022/05/30 19:36:56;;;;;;;;;;;23.10;39.50;;;;;;21170475;28;19927;-63
2022/05/30 19:46:58;;;;;;;;;;;23.00;39.40;;;;;;21169699;28;20014;-64
2022/05/30 19:57:00;;;;;;;;;;;22.80;39.80;;;;;;21168622;28;19924;-65
2022/05/30 20:07:02;;;;;;;;;;;22.70;40.20;;;;;;21166842;28;19924;-63
2022/05/30 20:17:04;;;;;;;;;;;22.60;40.20;;;;;;21165799;28;19928;-62
2022/05/30 20:27:05;;;;;;;;;;;22.60;40.40;;;;;;21165672;28;20311;-60
2022/05/30 20:37:11;;;;;;;;;;;22.50;40.80;;;;;;21163851;28;20006;-61
2022/05/30 20:47:13;;;;;;;;;;;22.40;41.00;;;;;;21163696;28;19946;-62
2022/05/30 20:57:15;;;;;;;;;;;22.40;41.20;;;;;;21163952;28;19924;-61
2022/05/30 21:07:17;;;;;;;;;;;22.20;42.20;;;;;;21162566;28;19924;-62
2022/05/30 21:17:45;;;;;;;;;;;22.10;42.40;;;;;;21162415;28;20299;-63
2022/05/30 21:27:47;;;;;;;;;;;21.90;43.20;;;;;;20739138;28;19926;-61
2022/05/30 21:37:49;;;;;;;;;;;21.70;43.60;;;;;;20753333;28;19936;-61
2022/05/30 21:47:51;;;;;;;;;;;21.70;43.80;;;;;;20755422;28;20321;-60
2022/05/30 21:57:55;;;;;;;;;;;21.70;44.20;;;;;;20845348;28;19931;-60
2022/05/30 22:07:57;;;;;;;;;;;21.60;44.70;;;;;;21176882;28;19924;-61
2022/05/30 22:17:59;;;;;;;;;;;21.40;45.00;;;;;;21176783;28;20438;-60
2022/05/30 22:28:01;;;;;;;;;;;21.30;45.00;;;;;;21177359;28;19923;-62
2022/05/30 22:38:04;;;;;;;;;;;21.30;45.10;;;;;;21159353;28;19927;-61
2022/05/30 22:48:06;;;;;;;;;;;21.20;45.40;;;;;;21174316;28;20014;-60
2022/05/30 22:58:08;;;;;;;;;;;21.10;45.80;;;;;;21173731;28;19924;-62
2022/05/30 23:08:10;;;;;;;;;;;21.10;46.10;;;;;;21155049;28;19930;-63
2022/05/30 23:18:15;;;;;;;;;;;21.00;46.10;;;;;;21172315;28;19924;-62
2022/05/30 23:28:17;;;;;;;;;;;20.90;46.50;;;;;;21171228;28;19924;-61
2022/05/30 23:38:18;;;;;;;;;;;20.70;47.00;;;;;;21170221;28;19924;-61
2022/05/30 23:48:20;;;;;;;;;;;20.70;46.90;;;;;;21169568;28;20380;-60
2022/05/30 23:58:22;;;;;;;;;;;20.60;47.20;;;;;;21167957;28;19971;-62
